sensor_id;sensor_type;location;lat;lon;timestamp;P1;durP1;ratioP1;P2;durP2;ratioP2
14611;SDS011;7392;52.078;11.650;2022-08-11T00:01:10;0.50;;;0.50;;
14611;SDS011;7392;52.078;11.650;2022-08-11T00:03:44;0.50;;;0.50;;
14611;SDS011;7392;52.078;11.650;2022-08-11T00:06:15;0.73;;;0.67;;
14611;SDS011;7392;52.078;11.650;2022-08-11T00:08:51;0.40;;;0.40;;
14611;SDS011;7392;52.078;11.650;2022-08-11T00:11:20;0.40;;;0.40;;
14611;SDS011;7392;52.078;11.650;2022-08-11T00:13:57;0.53;;;0.53;;
14611;SDS011;7392;52.078;11.650;2022-08-11T00:16:28;0.50;;;0.50;;
14611;SDS011;7392;52.078;11.650;2022-08-11T00:18:57;0.53;;;0.53;;
14611;SDS011;7392;52.078;11.650;2022-08-11T00:21:26;0.60;;;0.60;;
14611;SDS011;7392;52.078;11.650;2022-08-11T00:24:15;0.80;;;0.70;;
14611;SDS011;7392;52.078;11.650;2022-08-11T00:26:46;0.70;;;0.70;;
14611;SDS011;7392;52.078;11.650;2022-08-11T00:29:15;0.60;;;0.60;;
14611;SDS011;7392;52.078;11.650;2022-08-11T00:31:46;0.63;;;0.63;;
14611;SDS011;7392;52.078;11.650;2022-08-11T00:34:17;0.60;;;0.60;;
14611;SDS011;7392;52.078;11.650;2022-08-11T00:36:49;0.80;;;0.70;;
14611;SDS011;7392;52.078;11.650;2022-08-11T00:39:20;0.60;;;0.60;;
14611;SDS011;7392;52.078;11.650;2022-08-11T00:41:57;0.70;;;0.70;;
14611;SDS011;7392;52.078;11.650;2022-08-11T00:44:41;0.77;;;0.77;;
14611;SDS011;7392;52.078;11.650;2022-08-11T00:47:26;0.53;;;0.53;;
14611;SDS011;7392;52.078;11.650;2022-08-11T00:50:03;0.70;;;0.70;;
14611;SDS011;7392;52.078;11.650;2022-08-11T00:52:46;0.83;;;0.70;;
14611;SDS011;7392;52.078;11.650;2022-08-11T00:55:30;0.70;;;0.60;;
14611;SDS011;7392;52.078;11.650;2022-08-11T01:02:07;0.60;;;0.60;;
14611;SDS011;7392;52.078;11.650;2022-08-11T01:04:59;1.07;;;0.67;;
14611;SDS011;7392;52.078;11.650;2022-08-11T01:07:49;0.63;;;0.63;;
14611;SDS011;7392;52.078;11.650;2022-08-11T01:10:58;0.80;;;0.67;;
14611;SDS011;7392;52.078;11.650;2022-08-11T01:13:51;0.50;;;0.50;;
14611;SDS011;7392;52.078;11.650;2022-08-11T01:19:50;0.63;;;0.63;;
14611;SDS011;7392;52.078;11.650;2022-08-11T01:23:14;0.70;;;0.70;;
14611;SDS011;7392;52.078;11.650;2022-08-11T01:29:21;0.60;;;0.60;;
14611;SDS011;7392;52.078;11.650;2022-08-11T01:32:09;0.70;;;0.70;;
14611;SDS011;7392;52.078;11.650;2022-08-11T01:35:10;0.77;;;0.60;;
14611;SDS011;7392;52.078;11.650;2022-08-11T01:38:02;0.60;;;0.53;;
14611;SDS011;7392;52.078;11.650;2022-08-11T01:44:05;0.67;;;0.67;;
14611;SDS011;7392;52.078;11.650;2022-08-11T01:47:04;0.80;;;0.80;;
14611;SDS011;7392;52.078;11.650;2022-08-11T01:50:03;0.63;;;0.63;;
14611;SDS011;7392;52.078;11.650;2022-08-11T01:52:44;0.57;;;0.57;;
14611;SDS011;7392;52.078;11.650;2022-08-11T01:55:28;0.70;;;0.70;;
14611;SDS011;7392;52.078;11.650;2022-08-11T01:58:06;0.80;;;0.80;;
14611;SDS011;7392;52.078;11.650;2022-08-11T02:00:44;0.60;;;0.60;;
14611;SDS011;7392;52.078;11.650;2022-08-11T02:03:33;0.80;;;0.80;;
14611;SDS011;7392;52.078;11.650;2022-08-11T02:06:13;0.70;;;0.70;;
14611;SDS011;7392;52.078;11.650;2022-08-11T02:09:07;0.70;;;0.70;;
14611;SDS011;7392;52.078;11.650;2022-08-11T02:11:45;1.10;;;0.80;;
14611;SDS011;7392;52.078;11.650;2022-08-11T02:14:18;0.70;;;0.67;;
14611;SDS011;7392;52.078;11.650;2022-08-11T02:17:02;0.90;;;0.80;;
14611;SDS011;7392;52.078;11.650;2022-08-11T02:19:42;1.00;;;0.90;;
14611;SDS011;7392;52.078;11.650;2022-08-11T02:22:41;1.07;;;0.70;;
14611;SDS011;7392;52.078;11.650;2022-08-11T02:25:34;0.70;;;0.70;;
14611;SDS011;7392;52.078;11.650;2022-08-11T02:28:06;0.60;;;0.60;;
14611;SDS011;7392;52.078;11.650;2022-08-11T02:30:49;1.27;;;0.90;;
14611;SDS011;7392;52.078;11.650;2022-08-11T02:34:04;0.77;;;0.77;;
14611;SDS011;7392;52.078;11.650;2022-08-11T02:36:41;0.93;;;0.87;;
14611;SDS011;7392;52.078;11.650;2022-08-11T02:39:20;1.00;;;0.90;;
14611;SDS011;7392;52.078;11.650;2022-08-11T02:41:57;0.77;;;0.77;;
14611;SDS011;7392;52.078;11.650;2022-08-11T02:45:27;0.80;;;0.73;;
14611;SDS011;7392;52.078;11.650;2022-08-11T02:48:02;1.10;;;1.00;;
14611;SDS011;7392;52.078;11.650;2022-08-11T02:51:00;0.70;;;0.70;;
14611;SDS011;7392;52.078;11.650;2022-08-11T02:53:38;0.90;;;0.90;;
14611;SDS011;7392;52.078;11.650;2022-08-11T02:56:29;0.87;;;0.80;;
14611;SDS011;7392;52.078;11.650;2022-08-11T02:59:05;0.80;;;0.80;;
14611;SDS011;7392;52.078;11.650;2022-08-11T03:01:59;0.87;;;0.87;;
14611;SDS011;7392;52.078;11.650;2022-08-11T03:07:33;0.70;;;0.70;;
14611;SDS011;7392;52.078;11.650;2022-08-11T03:10:09;1.03;;;0.70;;
14611;SDS011;7392;52.078;11.650;2022-08-11T03:12:48;0.80;;;0.80;;
14611;SDS011;7392;52.078;11.650;2022-08-11T03:15:42;1.10;;;1.00;;
14611;SDS011;7392;52.078;11.650;2022-08-11T03:18:33;0.87;;;0.87;;
14611;SDS011;7392;52.078;11.650;2022-08-11T03:21:09;0.83;;;0.83;;
14611;SDS011;7392;52.078;11.650;2022-08-11T03:23:46;1.03;;;0.93;;
14611;SDS011;7392;52.078;11.650;2022-08-11T03:26:23;0.80;;;0.80;;
14611;SDS011;7392;52.078;11.650;2022-08-11T03:29:00;0.90;;;0.90;;
14611;SDS011;7392;52.078;11.650;2022-08-11T03:31:33;1.20;;;1.10;;
14611;SDS011;7392;52.078;11.650;2022-08-11T03:34:04;1.20;;;1.10;;
14611;SDS011;7392;52.078;11.650;2022-08-11T03:39:49;1.10;;;1.00;;
14611;SDS011;7392;52.078;11.650;2022-08-11T03:42:26;0.97;;;0.97;;
14611;SDS011;7392;52.078;11.650;2022-08-11T03:45:02;0.97;;;0.97;;
14611;SDS011;7392;52.078;11.650;2022-08-11T03:50:46;0.80;;;0.80;;
14611;SDS011;7392;52.078;11.650;2022-08-11T03:53:27;1.13;;;1.03;;
14611;SDS011;7392;52.078;11.650;2022-08-11T03:56:12;1.10;;;1.00;;
14611;SDS011;7392;52.078;11.650;2022-08-11T03:59:05;1.67;;;1.20;;
14611;SDS011;7392;52.078;11.650;2022-08-11T04:02:06;0.90;;;0.80;;
14611;SDS011;7392;52.078;11.650;2022-08-11T04:04:53;0.93;;;0.87;;
14611;SDS011;7392;52.078;11.650;2022-08-11T04:07:45;1.10;;;1.00;;
14611;SDS011;7392;52.078;11.650;2022-08-11T04:10:45;1.03;;;0.90;;
14611;SDS011;7392;52.078;11.650;2022-08-11T04:13:39;1.23;;;1.03;;
14611;SDS011;7392;52.078;11.650;2022-08-11T04:16:46;1.10;;;1.00;;
14611;SDS011;7392;52.078;11.650;2022-08-11T04:19:42;1.20;;;1.10;;
14611;SDS011;7392;52.078;11.650;2022-08-11T04:25:17;1.20;;;1.10;;
14611;SDS011;7392;52.078;11.650;2022-08-11T04:31:23;1.00;;;1.00;;
14611;SDS011;7392;52.078;11.650;2022-08-11T04:34:24;1.07;;;0.97;;
14611;SDS011;7392;52.078;11.650;2022-08-11T04:37:38;0.80;;;0.80;;
14611;SDS011;7392;52.078;11.650;2022-08-11T04:43:50;1.10;;;1.00;;
14611;SDS011;7392;52.078;11.650;2022-08-11T04:47:06;1.03;;;0.93;;
14611;SDS011;7392;52.078;11.650;2022-08-11T04:50:25;0.90;;;0.90;;
14611;SDS011;7392;52.078;11.650;2022-08-11T04:53:47;1.07;;;0.90;;
14611;SDS011;7392;52.078;11.650;2022-08-11T04:56:40;1.00;;;0.90;;
14611;SDS011;7392;52.078;11.650;2022-08-11T04:59:41;0.90;;;0.90;;
14611;SDS011;7392;52.078;11.650;2022-08-11T05:02:57;1.10;;;1.00;;
14611;SDS011;7392;52.078;11.650;2022-08-11T05:08:51;0.70;;;0.70;;
14611;SDS011;7392;52.078;11.650;2022-08-11T05:11:40;0.83;;;0.83;;
14611;SDS011;7392;52.078;11.650;2022-08-11T05:14:31;0.93;;;0.90;;
14611;SDS011;7392;52.078;11.650;2022-08-11T05:17:23;1.13;;;1.03;;
14611;SDS011;7392;52.078;11.650;2022-08-11T05:20:14;1.30;;;1.00;;
14611;SDS011;7392;52.078;11.650;2022-08-11T05:23:03;1.00;;;1.00;;
14611;SDS011;7392;52.078;11.650;2022-08-11T05:25:53;0.90;;;0.90;;
14611;SDS011;7392;52.078;11.650;2022-08-11T05:29:02;1.00;;;0.93;;
14611;SDS011;7392;52.078;11.650;2022-08-11T05:32:10;0.90;;;0.87;;
14611;SDS011;7392;52.078;11.650;2022-08-11T05:34:57;1.00;;;0.90;;
14611;SDS011;7392;52.078;11.650;2022-08-11T05:37:33;1.07;;;1.00;;
14611;SDS011;7392;52.078;11.650;2022-08-11T05:40:08;0.97;;;0.90;;
14611;SDS011;7392;52.078;11.650;2022-08-11T05:42:57;1.10;;;1.00;;
14611;SDS011;7392;52.078;11.650;2022-08-11T05:45:43;1.00;;;1.00;;
14611;SDS011;7392;52.078;11.650;2022-08-11T05:48:41;0.90;;;0.90;;
14611;SDS011;7392;52.078;11.650;2022-08-11T05:51:32;0.80;;;0.80;;
14611;SDS011;7392;52.078;11.650;2022-08-11T05:54:21;0.83;;;0.70;;
14611;SDS011;7392;52.078;11.650;2022-08-11T05:57:17;0.80;;;0.80;;
14611;SDS011;7392;52.078;11.650;2022-08-11T06:00:08;1.10;;;1.00;;
14611;SDS011;7392;52.078;11.650;2022-08-11T06:02:41;0.87;;;0.80;;
14611;SDS011;7392;52.078;11.650;2022-08-11T06:05:10;1.00;;;0.90;;
14611;SDS011;7392;52.078;11.650;2022-08-11T06:07:39;1.10;;;1.00;;
14611;SDS011;7392;52.078;11.650;2022-08-11T06:10:23;1.87;;;1.27;;
14611;SDS011;7392;52.078;11.650;2022-08-11T06:12:54;1.60;;;0.93;;
14611;SDS011;7392;52.078;11.650;2022-08-11T06:15:28;1.10;;;1.00;;
14611;SDS011;7392;52.078;11.650;2022-08-11T06:17:59;1.13;;;1.03;;
14611;SDS011;7392;52.078;11.650;2022-08-11T06:20:29;1.10;;;1.00;;
14611;SDS011;7392;52.078;11.650;2022-08-11T06:23:04;0.87;;;0.80;;
14611;SDS011;7392;52.078;11.650;2022-08-11T06:25:35;1.20;;;1.10;;
14611;SDS011;7392;52.078;11.650;2022-08-11T06:28:04;0.70;;;0.70;;
14611;SDS011;7392;52.078;11.650;2022-08-11T06:30:36;1.03;;;0.93;;
14611;SDS011;7392;52.078;11.650;2022-08-11T06:33:08;1.20;;;1.07;;
14611;SDS011;7392;52.078;11.650;2022-08-11T06:35:43;2.47;;;1.10;;
14611;SDS011;7392;52.078;11.650;2022-08-11T06:38:18;1.10;;;1.00;;
14611;SDS011;7392;52.078;11.650;2022-08-11T06:40:58;1.10;;;1.00;;
14611;SDS011;7392;52.078;11.650;2022-08-11T06:43:48;1.23;;;1.10;;
14611;SDS011;7392;52.078;11.650;2022-08-11T06:46:27;1.00;;;1.00;;
14611;SDS011;7392;52.078;11.650;2022-08-11T06:48:59;1.10;;;1.00;;
14611;SDS011;7392;52.078;11.650;2022-08-11T06:51:29;1.73;;;1.30;;
14611;SDS011;7392;52.078;11.650;2022-08-11T06:53:59;0.93;;;0.93;;
14611;SDS011;7392;52.078;11.650;2022-08-11T06:56:31;1.00;;;0.90;;
14611;SDS011;7392;52.078;11.650;2022-08-11T06:59:40;1.43;;;1.10;;
14611;SDS011;7392;52.078;11.650;2022-08-11T07:02:29;1.10;;;1.00;;
14611;SDS011;7392;52.078;11.650;2022-08-11T07:05:01;1.10;;;1.00;;
14611;SDS011;7392;52.078;11.650;2022-08-11T07:11:21;1.10;;;1.00;;
14611;SDS011;7392;52.078;11.650;2022-08-11T07:14:29;1.03;;;0.90;;
14611;SDS011;7392;52.078;11.650;2022-08-11T07:17:16;1.03;;;0.90;;
14611;SDS011;7392;52.078;11.650;2022-08-11T07:19:50;1.47;;;1.27;;
14611;SDS011;7392;52.078;11.650;2022-08-11T07:22:39;1.40;;;1.23;;
14611;SDS011;7392;52.078;11.650;2022-08-11T07:25:35;2.23;;;1.53;;
14611;SDS011;7392;52.078;11.650;2022-08-11T07:28:23;1.27;;;1.10;;
14611;SDS011;7392;52.078;11.650;2022-08-11T07:31:11;1.30;;;1.20;;
14611;SDS011;7392;52.078;11.650;2022-08-11T07:33:41;1.40;;;1.10;;
14611;SDS011;7392;52.078;11.650;2022-08-11T07:36:35;1.03;;;0.93;;
14611;SDS011;7392;52.078;11.650;2022-08-11T07:39:07;1.20;;;1.10;;
14611;SDS011;7392;52.078;11.650;2022-08-11T07:41:46;1.20;;;1.10;;
14611;SDS011;7392;52.078;11.650;2022-08-11T07:44:16;1.13;;;1.03;;
14611;SDS011;7392;52.078;11.650;2022-08-11T07:46:46;1.23;;;1.13;;
14611;SDS011;7392;52.078;11.650;2022-08-11T07:49:34;2.00;;;1.30;;
14611;SDS011;7392;52.078;11.650;2022-08-11T07:52:22;2.17;;;1.20;;
14611;SDS011;7392;52.078;11.650;2022-08-11T07:54:59;1.00;;;0.90;;
14611;SDS011;7392;52.078;11.650;2022-08-11T07:57:29;1.20;;;1.10;;
14611;SDS011;7392;52.078;11.650;2022-08-11T08:00:36;1.40;;;1.30;;
14611;SDS011;7392;52.078;11.650;2022-08-11T08:03:27;1.27;;;1.00;;
14611;SDS011;7392;52.078;11.650;2022-08-11T08:06:20;1.40;;;1.30;;
14611;SDS011;7392;52.078;11.650;2022-08-11T08:09:08;1.07;;;0.97;;
14611;SDS011;7392;52.078;11.650;2022-08-11T08:11:56;1.53;;;1.43;;
14611;SDS011;7392;52.078;11.650;2022-08-11T08:14:44;2.27;;;1.90;;
14611;SDS011;7392;52.078;11.650;2022-08-11T08:17:29;1.50;;;1.40;;
14611;SDS011;7392;52.078;11.650;2022-08-11T08:20:37;1.67;;;1.57;;
14611;SDS011;7392;52.078;11.650;2022-08-11T08:23:09;1.95;;;1.50;;
14611;SDS011;7392;52.078;11.650;2022-08-11T08:25:39;1.30;;;1.20;;
14611;SDS011;7392;52.078;11.650;2022-08-11T08:28:09;1.75;;;1.20;;
14611;SDS011;7392;52.078;11.650;2022-08-11T08:30:40;1.30;;;1.20;;
14611;SDS011;7392;52.078;11.650;2022-08-11T08:33:18;1.20;;;1.10;;
14611;SDS011;7392;52.078;11.650;2022-08-11T08:35:49;1.40;;;1.30;;
14611;SDS011;7392;52.078;11.650;2022-08-11T08:38:38;1.20;;;1.10;;
14611;SDS011;7392;52.078;11.650;2022-08-11T08:41:08;1.33;;;1.13;;
14611;SDS011;7392;52.078;11.650;2022-08-11T08:43:42;1.67;;;1.27;;
14611;SDS011;7392;52.078;11.650;2022-08-11T08:46:14;1.13;;;1.02;;
14611;SDS011;7392;52.078;11.650;2022-08-11T08:48:47;1.05;;;0.95;;
14611;SDS011;7392;52.078;11.650;2022-08-11T08:51:18;1.23;;;1.13;;
14611;SDS011;7392;52.078;11.650;2022-08-11T08:54:22;1.30;;;1.20;;
14611;SDS011;7392;52.078;11.650;2022-08-11T08:56:56;1.27;;;1.17;;
14611;SDS011;7392;52.078;11.650;2022-08-11T08:59:25;1.30;;;1.17;;
14611;SDS011;7392;52.078;11.650;2022-08-11T09:02:14;1.33;;;1.17;;
14611;SDS011;7392;52.078;11.650;2022-08-11T09:04:43;1.45;;;1.35;;
14611;SDS011;7392;52.078;11.650;2022-08-11T09:07:14;1.20;;;1.10;;
14611;SDS011;7392;52.078;11.650;2022-08-11T09:09:44;1.38;;;1.25;;
14611;SDS011;7392;52.078;11.650;2022-08-11T09:12:17;1.17;;;1.08;;
14611;SDS011;7392;52.078;11.650;2022-08-11T09:15:04;1.20;;;1.10;;
14611;SDS011;7392;52.078;11.650;2022-08-11T09:17:37;1.23;;;1.13;;
14611;SDS011;7392;52.078;11.650;2022-08-11T09:20:07;1.42;;;1.33;;
14611;SDS011;7392;52.078;11.650;2022-08-11T09:22:38;1.75;;;1.25;;
14611;SDS011;7392;52.078;11.650;2022-08-11T09:25:55;1.30;;;1.20;;
14611;SDS011;7392;52.078;11.650;2022-08-11T09:28:44;1.55;;;1.25;;
14611;SDS011;7392;52.078;11.650;2022-08-11T09:31:15;1.42;;;1.33;;
14611;SDS011;7392;52.078;11.650;2022-08-11T09:33:47;1.48;;;1.38;;
14611;SDS011;7392;52.078;11.650;2022-08-11T09:36:18;1.20;;;1.10;;
14611;SDS011;7392;52.078;11.650;2022-08-11T09:39:12;1.23;;;1.13;;
14611;SDS011;7392;52.078;11.650;2022-08-11T09:41:59;3.17;;;1.83;;
14611;SDS011;7392;52.078;11.650;2022-08-11T09:44:31;2.00;;;1.80;;
14611;SDS011;7392;52.078;11.650;2022-08-11T09:47:19;1.60;;;1.48;;
14611;SDS011;7392;52.078;11.650;2022-08-11T09:49:50;2.20;;;1.70;;
14611;SDS011;7392;52.078;11.650;2022-08-11T09:52:20;2.30;;;1.67;;
14611;SDS011;7392;52.078;11.650;2022-08-11T09:54:50;1.70;;;1.50;;
14611;SDS011;7392;52.078;11.650;2022-08-11T09:57:19;1.40;;;1.30;;
14611;SDS011;7392;52.078;11.650;2022-08-11T10:00:08;2.72;;;1.50;;
14611;SDS011;7392;52.078;11.650;2022-08-11T10:02:41;1.38;;;1.27;;
14611;SDS011;7392;52.078;11.650;2022-08-11T10:05:10;1.48;;;1.38;;
14611;SDS011;7392;52.078;11.650;2022-08-11T10:08:01;1.45;;;1.20;;
14611;SDS011;7392;52.078;11.650;2022-08-11T10:10:30;1.40;;;1.30;;
14611;SDS011;7392;52.078;11.650;2022-08-11T10:13:03;2.28;;;1.30;;
14611;SDS011;7392;52.078;11.650;2022-08-11T10:16:00;2.70;;;2.33;;
14611;SDS011;7392;52.078;11.650;2022-08-11T10:18:42;2.03;;;1.83;;
14611;SDS011;7392;52.078;11.650;2022-08-11T10:21:26;3.03;;;2.00;;
14611;SDS011;7392;52.078;11.650;2022-08-11T10:23:57;3.40;;;1.90;;
14611;SDS011;7392;52.078;11.650;2022-08-11T10:26:44;1.88;;;1.45;;
14611;SDS011;7392;52.078;11.650;2022-08-11T10:29:26;1.77;;;1.60;;
14611;SDS011;7392;52.078;11.650;2022-08-11T10:32:19;2.20;;;1.38;;
14611;SDS011;7392;52.078;11.650;2022-08-11T10:35:25;1.17;;;1.08;;
14611;SDS011;7392;52.078;11.650;2022-08-11T10:37:54;1.27;;;1.17;;
14611;SDS011;7392;52.078;11.650;2022-08-11T10:40:34;1.70;;;1.60;;
14611;SDS011;7392;52.078;11.650;2022-08-11T10:43:05;1.25;;;1.15;;
14611;SDS011;7392;52.078;11.650;2022-08-11T10:45:40;1.30;;;1.20;;
14611;SDS011;7392;52.078;11.650;2022-08-11T10:48:28;1.30;;;1.20;;
14611;SDS011;7392;52.078;11.650;2022-08-11T10:51:01;1.20;;;1.10;;
14611;SDS011;7392;52.078;11.650;2022-08-11T10:53:40;1.45;;;1.23;;
14611;SDS011;7392;52.078;11.650;2022-08-11T10:56:28;1.13;;;1.10;;
14611;SDS011;7392;52.078;11.650;2022-08-11T10:59:14;1.00;;;1.00;;
14611;SDS011;7392;52.078;11.650;2022-08-11T11:01:44;1.60;;;1.27;;
14611;SDS011;7392;52.078;11.650;2022-08-11T11:04:14;1.17;;;1.08;;
14611;SDS011;7392;52.078;11.650;2022-08-11T11:06:47;1.25;;;0.80;;
14611;SDS011;7392;52.078;11.650;2022-08-11T11:09:19;1.10;;;1.00;;
14611;SDS011;7392;52.078;11.650;2022-08-11T11:11:52;0.80;;;0.80;;
14611;SDS011;7392;52.078;11.650;2022-08-11T11:14:40;1.42;;;0.90;;
14611;SDS011;7392;52.078;11.650;2022-08-11T11:17:27;1.40;;;1.13;;
14611;SDS011;7392;52.078;11.650;2022-08-11T11:20:17;1.20;;;1.10;;
14611;SDS011;7392;52.078;11.650;2022-08-11T11:23:05;1.30;;;1.10;;
14611;SDS011;7392;52.078;11.650;2022-08-11T11:25:49;1.20;;;1.10;;
14611;SDS011;7392;52.078;11.650;2022-08-11T11:31:35;2.33;;;2.13;;
14611;SDS011;7392;52.078;11.650;2022-08-11T11:34:37;2.17;;;1.80;;
14611;SDS011;7392;52.078;11.650;2022-08-11T11:37:20;1.60;;;1.50;;
14611;SDS011;7392;52.078;11.650;2022-08-11T11:39:50;1.58;;;1.48;;
14611;SDS011;7392;52.078;11.650;2022-08-11T11:42:19;1.33;;;1.20;;
14611;SDS011;7392;52.078;11.650;2022-08-11T11:44:49;1.13;;;1.02;;
14611;SDS011;7392;52.078;11.650;2022-08-11T11:47:21;1.00;;;1.00;;
14611;SDS011;7392;52.078;11.650;2022-08-11T11:49:50;1.33;;;1.15;;
14611;SDS011;7392;52.078;11.650;2022-08-11T11:52:21;1.25;;;1.00;;
14611;SDS011;7392;52.078;11.650;2022-08-11T11:54:51;1.40;;;1.15;;
14611;SDS011;7392;52.078;11.650;2022-08-11T11:57:22;1.23;;;1.13;;
14611;SDS011;7392;52.078;11.650;2022-08-11T12:00:24;1.30;;;1.08;;
14611;SDS011;7392;52.078;11.650;2022-08-11T12:03:10;1.30;;;1.20;;
14611;SDS011;7392;52.078;11.650;2022-08-11T12:05:39;1.83;;;1.15;;
14611;SDS011;7392;52.078;11.650;2022-08-11T12:08:11;1.63;;;1.20;;
14611;SDS011;7392;52.078;11.650;2022-08-11T12:10:43;1.40;;;1.30;;
14611;SDS011;7392;52.078;11.650;2022-08-11T12:13:13;0.98;;;0.98;;
14611;SDS011;7392;52.078;11.650;2022-08-11T12:16:01;1.17;;;1.00;;
14611;SDS011;7392;52.078;11.650;2022-08-11T12:18:51;1.23;;;0.98;;
14611;SDS011;7392;52.078;11.650;2022-08-11T12:21:21;1.13;;;1.00;;
14611;SDS011;7392;52.078;11.650;2022-08-11T12:23:52;0.90;;;0.90;;
14611;SDS011;7392;52.078;11.650;2022-08-11T12:26:41;1.50;;;0.93;;
14611;SDS011;7392;52.078;11.650;2022-08-11T12:29:43;1.15;;;1.00;;
14611;SDS011;7392;52.078;11.650;2022-08-11T12:32:20;1.23;;;1.02;;
14611;SDS011;7392;52.078;11.650;2022-08-11T12:34:49;1.58;;;1.10;;
14611;SDS011;7392;52.078;11.650;2022-08-11T12:37:19;0.80;;;0.80;;
14611;SDS011;7392;52.078;11.650;2022-08-11T12:39:55;1.38;;;0.80;;
14611;SDS011;7392;52.078;11.650;2022-08-11T12:43:06;0.90;;;0.90;;
14611;SDS011;7392;52.078;11.650;2022-08-11T12:46:06;2.10;;;0.90;;
14611;SDS011;7392;52.078;11.650;2022-08-11T12:48:36;0.85;;;0.85;;
14611;SDS011;7392;52.078;11.650;2022-08-11T12:51:30;0.80;;;0.80;;
14611;SDS011;7392;52.078;11.650;2022-08-11T12:54:48;0.90;;;0.90;;
14611;SDS011;7392;52.078;11.650;2022-08-11T12:57:26;1.08;;;0.98;;
14611;SDS011;7392;52.078;11.650;2022-08-11T13:00:16;1.23;;;1.13;;
14611;SDS011;7392;52.078;11.650;2022-08-11T13:03:03;0.80;;;0.80;;
14611;SDS011;7392;52.078;11.650;2022-08-11T13:05:52;0.75;;;0.75;;
14611;SDS011;7392;52.078;11.650;2022-08-11T13:08:22;0.80;;;0.80;;
14611;SDS011;7392;52.078;11.650;2022-08-11T13:10:51;1.15;;;0.90;;
14611;SDS011;7392;52.078;11.650;2022-08-11T13:13:39;1.10;;;0.73;;
14611;SDS011;7392;52.078;11.650;2022-08-11T13:16:21;2.25;;;1.40;;
14611;SDS011;7392;52.078;11.650;2022-08-11T13:18:50;1.45;;;1.35;;
14611;SDS011;7392;52.078;11.650;2022-08-11T13:21:19;1.70;;;1.20;;
14611;SDS011;7392;52.078;11.650;2022-08-11T13:23:48;1.13;;;1.00;;
14611;SDS011;7392;52.078;11.650;2022-08-11T13:26:29;1.05;;;0.98;;
14611;SDS011;7392;52.078;11.650;2022-08-11T13:29:18;1.20;;;1.10;;
14611;SDS011;7392;52.078;11.650;2022-08-11T13:31:47;1.33;;;1.23;;
14611;SDS011;7392;52.078;11.650;2022-08-11T13:34:18;1.60;;;1.02;;
14611;SDS011;7392;52.078;11.650;2022-08-11T13:36:48;0.82;;;0.82;;
14611;SDS011;7392;52.078;11.650;2022-08-11T13:39:18;0.80;;;0.80;;
14611;SDS011;7392;52.078;11.650;2022-08-11T13:41:50;0.90;;;0.90;;
14611;SDS011;7392;52.078;11.650;2022-08-11T13:44:21;1.20;;;1.10;;
14611;SDS011;7392;52.078;11.650;2022-08-11T13:46:53;1.40;;;1.00;;
14611;SDS011;7392;52.078;11.650;2022-08-11T13:49:24;0.88;;;0.88;;
14611;SDS011;7392;52.078;11.650;2022-08-11T13:51:53;0.88;;;0.80;;
14611;SDS011;7392;52.078;11.650;2022-08-11T13:54:22;0.93;;;0.90;;
14611;SDS011;7392;52.078;11.650;2022-08-11T13:56:54;1.35;;;1.10;;
14611;SDS011;7392;52.078;11.650;2022-08-11T13:59:24;1.17;;;1.08;;
14611;SDS011;7392;52.078;11.650;2022-08-11T14:01:57;1.73;;;1.10;;
14611;SDS011;7392;52.078;11.650;2022-08-11T14:04:49;1.10;;;1.00;;
14611;SDS011;7392;52.078;11.650;2022-08-11T14:07:22;1.15;;;1.00;;
14611;SDS011;7392;52.078;11.650;2022-08-11T14:09:53;1.35;;;0.93;;
14611;SDS011;7392;52.078;11.650;2022-08-11T14:12:24;0.90;;;0.90;;
14611;SDS011;7392;52.078;11.650;2022-08-11T14:15:15;1.10;;;1.00;;
14611;SDS011;7392;52.078;11.650;2022-08-11T14:17:50;0.98;;;0.90;;
14611;SDS011;7392;52.078;11.650;2022-08-11T14:20:21;1.00;;;1.00;;
14611;SDS011;7392;52.078;11.650;2022-08-11T14:23:06;0.80;;;0.80;;
14611;SDS011;7392;52.078;11.650;2022-08-11T14:25:38;0.88;;;0.88;;
14611;SDS011;7392;52.078;11.650;2022-08-11T14:28:29;1.63;;;1.20;;
14611;SDS011;7392;52.078;11.650;2022-08-11T14:31:08;1.15;;;1.05;;
14611;SDS011;7392;52.078;11.650;2022-08-11T14:33:37;1.55;;;1.27;;
14611;SDS011;7392;52.078;11.650;2022-08-11T14:36:27;1.10;;;1.00;;
14611;SDS011;7392;52.078;11.650;2022-08-11T14:38:57;0.98;;;0.93;;
14611;SDS011;7392;52.078;11.650;2022-08-11T14:41:27;1.05;;;0.90;;
14611;SDS011;7392;52.078;11.650;2022-08-11T14:44:34;2.05;;;1.27;;
14611;SDS011;7392;52.078;11.650;2022-08-11T14:47:23;3.17;;;1.10;;
14611;SDS011;7392;52.078;11.650;2022-08-11T14:49:52;3.67;;;1.20;;
14611;SDS011;7392;52.078;11.650;2022-08-11T14:52:38;0.90;;;0.90;;
14611;SDS011;7392;52.078;11.650;2022-08-11T14:55:10;1.00;;;0.90;;
14611;SDS011;7392;52.078;11.650;2022-08-11T14:57:56;1.10;;;1.00;;
14611;SDS011;7392;52.078;11.650;2022-08-11T15:00:25;1.00;;;0.90;;
14611;SDS011;7392;52.078;11.650;2022-08-11T15:02:56;0.80;;;0.80;;
14611;SDS011;7392;52.078;11.650;2022-08-11T15:05:46;1.10;;;1.00;;
14611;SDS011;7392;52.078;11.650;2022-08-11T15:08:24;2.33;;;1.00;;
14611;SDS011;7392;52.078;11.650;2022-08-11T15:11:07;1.10;;;1.00;;
14611;SDS011;7392;52.078;11.650;2022-08-11T15:13:57;1.13;;;1.10;;
14611;SDS011;7392;52.078;11.650;2022-08-11T15:16:26;1.27;;;1.10;;
14611;SDS011;7392;52.078;11.650;2022-08-11T15:19:17;1.25;;;1.05;;
14611;SDS011;7392;52.078;11.650;2022-08-11T15:21:47;1.10;;;1.00;;
14611;SDS011;7392;52.078;11.650;2022-08-11T15:24:33;0.90;;;0.90;;
14611;SDS011;7392;52.078;11.650;2022-08-11T15:27:03;1.40;;;1.00;;
14611;SDS011;7392;52.078;11.650;2022-08-11T15:29:53;0.85;;;0.85;;
14611;SDS011;7392;52.078;11.650;2022-08-11T15:32:59;0.90;;;0.90;;
14611;SDS011;7392;52.078;11.650;2022-08-11T15:35:49;1.20;;;1.00;;
14611;SDS011;7392;52.078;11.650;2022-08-11T15:38:36;1.10;;;1.00;;
14611;SDS011;7392;52.078;11.650;2022-08-11T15:41:08;1.10;;;1.00;;
14611;SDS011;7392;52.078;11.650;2022-08-11T15:44:01;0.90;;;0.90;;
14611;SDS011;7392;52.078;11.650;2022-08-11T15:47:15;1.05;;;0.95;;
14611;SDS011;7392;52.078;11.650;2022-08-11T15:49:45;0.98;;;0.98;;
14611;SDS011;7392;52.078;11.650;2022-08-11T15:52:40;1.17;;;1.08;;
14611;SDS011;7392;52.078;11.650;2022-08-11T15:55:12;1.80;;;1.15;;
14611;SDS011;7392;52.078;11.650;2022-08-11T15:57:41;1.15;;;1.00;;
14611;SDS011;7392;52.078;11.650;2022-08-11T16:00:28;1.00;;;0.90;;
14611;SDS011;7392;52.078;11.650;2022-08-11T16:03:24;0.85;;;0.85;;
14611;SDS011;7392;52.078;11.650;2022-08-11T16:06:31;0.85;;;0.85;;
14611;SDS011;7392;52.078;11.650;2022-08-11T16:09:03;0.90;;;0.90;;
14611;SDS011;7392;52.078;11.650;2022-08-11T16:11:44;2.13;;;1.00;;
14611;SDS011;7392;52.078;11.650;2022-08-11T16:14:12;0.70;;;0.70;;
14611;SDS011;7392;52.078;11.650;2022-08-11T16:17:00;1.08;;;0.93;;
14611;SDS011;7392;52.078;11.650;2022-08-11T16:19:30;0.80;;;0.80;;
14611;SDS011;7392;52.078;11.650;2022-08-11T16:22:02;0.82;;;0.77;;
14611;SDS011;7392;52.078;11.650;2022-08-11T16:24:37;1.20;;;1.10;;
14611;SDS011;7392;52.078;11.650;2022-08-11T16:27:30;0.90;;;0.90;;
14611;SDS011;7392;52.078;11.650;2022-08-11T16:30:01;2.47;;;1.05;;
14611;SDS011;7392;52.078;11.650;2022-08-11T16:32:32;1.50;;;1.10;;
14611;SDS011;7392;52.078;11.650;2022-08-11T16:35:03;1.23;;;0.98;;
14611;SDS011;7392;52.078;11.650;2022-08-11T16:37:51;1.10;;;1.00;;
14611;SDS011;7392;52.078;11.650;2022-08-11T16:40:40;0.75;;;0.75;;
14611;SDS011;7392;52.078;11.650;2022-08-11T16:43:11;0.90;;;0.90;;
14611;SDS011;7392;52.078;11.650;2022-08-11T16:45:59;0.73;;;0.73;;
14611;SDS011;7392;52.078;11.650;2022-08-11T16:48:47;1.00;;;0.90;;
14611;SDS011;7392;52.078;11.650;2022-08-11T16:51:19;0.77;;;0.77;;
14611;SDS011;7392;52.078;11.650;2022-08-11T16:53:48;1.05;;;0.93;;
14611;SDS011;7392;52.078;11.650;2022-08-11T16:56:33;1.40;;;0.90;;
14611;SDS011;7392;52.078;11.650;2022-08-11T16:59:05;1.15;;;0.88;;